Kabala Airport

Jump to: basic info | weather | comments

Related pages: nearby airports | nearby navaids | notams | map

Basic information (top)

Codes: KBA GFKB
Location: lon 9.638323, lat -11.515560, elev 1,012 ft / 308 m msl
Status: small_airport
Scheduled airline service: no
Links: Wikipedia Mobile

Weather (top)

Current conditions for Labe Airport 111nm (206km) NNW (rec'd 2014/09/08 14:00Z):

GULB 081400Z 20010KT 9999 BKN015 BKN110 27/25 Q1015

Airport forecast for Lungi International Airport 117nm (217km) WSW (rec'd 2014/11/23 18:54Z):

TAF TAF GFLL 231600Z 2318/2424 27010KT 9999 BKN013 FEW027CB PROB30 
      TEMPO 2320/2404 12006KT 7000 TS/TSRA BKN010 FEW026CB 
      BECMG 2405/2407 18002KT 4000 BR BKN009 
      TEMPO 2408/2414 28010KT 7000 -TSRA BKN010 
     FM241500 27010KT 9999 BKN012 FEW027CB

Latest comments (top)

No comments yet for Kabala Airport

More... (top)

See also NOTAMs and nearby airports and navaids, or visit the Kabala Airport page at the main OurAirports website..